Time;durP1;ratioP1;P1;durP2;ratioP2;P2;SDS_P1;SDS_P2;PMS_P1;PMS_P2;Temp;Humidity;BMP_temperature;BMP_pressure;BME280_temperature;BME280_humidity;BME280_pressure;Samples;Min_cycle;Max_cycle;Signal;HPM_P1;HPM_P2
2022/02/08 00:00:05;;;;;;;0.10;0.10;;;3.70;99.90;;;;;;5033812;28;20033;-65
2022/02/08 00:02:34;;;;;;;0.10;0.10;;;3.70;99.90;;;;;;5033914;28;20033;-65
2022/02/08 00:05:00;;;;;;;0.32;0.32;;;3.60;99.90;;;;;;5033604;28;20447;-64
2022/02/08 00:07:27;;;;;;;0.10;0.10;;;3.50;99.90;;;;;;5048604;28;20109;-64
2022/02/08 00:09:53;;;;;;;4.18;3.20;;;3.40;99.90;;;;;;5032034;28;20041;-64
2022/02/08 00:12:19;;;;;;;0.55;0.55;;;3.20;99.90;;;;;;5033155;28;20045;-64
2022/02/08 00:14:46;;;;;;;0.10;0.10;;;3.10;99.90;;;;;;5032322;28;20375;-64
2022/02/08 00:17:12;;;;;;;0.10;0.10;;;3.00;99.90;;;;;;5033192;28;20030;-64
2022/02/08 00:19:38;;;;;;;1.55;1.40;;;2.90;99.90;;;;;;5033059;28;20040;-64
2022/02/08 00:22:04;;;;;;;0.10;0.10;;;2.90;99.90;;;;;;5032922;28;20044;-64
2022/02/08 00:24:31;;;;;;;0.10;0.10;;;2.90;99.90;;;;;;5033383;28;20037;-64
2022/02/08 00:26:56;;;;;;;0.10;0.10;;;2.90;99.90;;;;;;5033343;28;20433;-63
2022/02/08 00:29:22;;;;;;;0.10;0.10;;;2.90;99.90;;;;;;5032754;28;20144;-64
2022/02/08 00:31:48;;;;;;;0.20;0.20;;;3.00;99.90;;;;;;5033069;28;20083;-64
2022/02/08 00:34:14;;;;;;;0.10;0.10;;;3.00;99.90;;;;;;5032611;28;20395;-64
2022/02/08 00:36:39;;;;;;;0.10;0.10;;;3.10;99.90;;;;;;5032842;28;20056;-64
2022/02/08 00:39:09;;;;;;;0.10;0.10;;;3.10;99.90;;;;;;5032555;28;20033;-65
2022/02/08 00:41:37;;;;;;;0.20;0.20;;;3.10;99.90;;;;;;5032979;28;20038;-64
2022/02/08 00:44:10;;;;;;;0.10;0.10;;;3.10;99.90;;;;;;5032542;28;20163;-65
2022/02/08 00:46:56;;;;;;;0.00;0.00;;;3.10;99.90;;;;;;5033039;28;20069;-65
2022/02/08 00:49:30;;;;;;;0.10;0.10;;;3.10;99.90;;;;;;5045138;28;20037;-64
2022/02/08 00:52:05;;;;;;;0.10;0.10;;;3.00;99.90;;;;;;5046984;28;20029;-65
2022/02/08 00:54:31;;;;;;;0.10;0.10;;;3.00;99.90;;;;;;5047825;28;20029;-64
2022/02/08 00:56:56;;;;;;;0.10;0.10;;;3.00;99.90;;;;;;5047875;28;20423;-64
2022/02/08 00:59:22;;;;;;;0.10;0.10;;;3.00;99.90;;;;;;5032596;28;20124;-64
2022/02/08 01:01:48;;;;;;;3.30;1.85;;;3.00;99.90;;;;;;5047778;28;20029;-64
2022/02/08 01:04:14;;;;;;;0.25;0.25;;;2.90;99.90;;;;;;5032478;28;20029;-64
2022/02/08 01:06:41;;;;;;;1.67;1.58;;;2.90;99.90;;;;;;5032630;28;20462;-64
2022/02/08 01:09:15;;;;;;;0.10;0.10;;;2.80;99.90;;;;;;5046913;28;20029;-63
2022/02/08 01:11:43;;;;;;;0.10;0.10;;;2.80;99.90;;;;;;5032508;28;20033;-64
2022/02/08 01:14:09;;;;;;;1.45;1.35;;;2.90;99.90;;;;;;5032327;28;20504;-64
2022/02/08 01:16:35;;;;;;;0.10;0.10;;;3.00;99.90;;;;;;5032119;28;20041;-64
2022/02/08 01:19:03;;;;;;;0.57;0.57;;;3.10;99.90;;;;;;5032004;28;20037;-64
2022/02/08 01:21:31;;;;;;;0.10;0.10;;;3.20;99.90;;;;;;5032276;28;20033;-64
2022/02/08 01:24:00;;;;;;;0.00;0.00;;;3.30;99.90;;;;;;5032121;28;20033;-64
2022/02/08 01:26:27;;;;;;;0.00;0.00;;;3.40;99.90;;;;;;5032008;28;20037;-64
2022/02/08 01:29:05;;;;;;;0.10;0.10;;;3.50;99.90;;;;;;5047139;28;20103;-64
2022/02/08 01:31:36;;;;;;;0.10;0.10;;;3.70;99.90;;;;;;5047199;28;20109;-64
2022/02/08 01:37:03;;;;;;;0.10;0.10;;;3.90;99.90;;;;;;5031672;28;20077;-64
2022/02/08 01:39:40;;;;;;;0.00;0.00;;;3.90;99.90;;;;;;5046803;28;20033;-64
2022/02/08 01:45:01;;;;;;;0.00;0.00;;;4.00;99.90;;;;;;5032222;28;20037;-64
2022/02/08 01:47:31;;;;;;;0.05;0.05;;;4.00;99.90;;;;;;5047117;28;20037;-63
2022/02/08 01:50:10;;;;;;;0.10;0.10;;;4.10;99.90;;;;;;5031870;28;20064;-63
2022/02/08 01:52:37;;;;;;;0.10;0.10;;;4.10;99.90;;;;;;5031729;28;20087;-64
2022/02/08 01:55:05;;;;;;;0.10;0.10;;;4.10;99.90;;;;;;5031681;28;20035;-63
2022/02/08 01:57:30;;;;;;;0.00;0.00;;;4.10;99.90;;;;;;5031567;28;20046;-64
2022/02/08 01:59:56;;;;;;;0.10;0.10;;;4.20;99.90;;;;;;5031851;28;20490;-64
2022/02/08 02:02:22;;;;;;;0.00;0.00;;;4.20;99.90;;;;;;5031439;28;20080;-64
2022/02/08 02:04:48;;;;;;;0.00;0.00;;;4.30;99.90;;;;;;5031772;28;20530;-64
2022/02/08 02:07:16;;;;;;;0.10;0.10;;;4.20;99.90;;;;;;5031609;28;20083;-64
2022/02/08 02:09:46;;;;;;;0.10;0.10;;;4.30;99.90;;;;;;5031610;28;20121;-64
2022/02/08 02:12:13;;;;;;;0.10;0.10;;;4.30;99.90;;;;;;5031295;28;20379;-64
2022/02/08 02:14:40;;;;;;;0.10;0.10;;;4.30;99.90;;;;;;5031491;28;20060;-64
2022/02/08 02:17:09;;;;;;;0.10;0.10;;;4.30;99.90;;;;;;5046667;28;20064;-64
2022/02/08 02:19:36;;;;;;;7.47;5.07;;;4.30;99.90;;;;;;5046717;28;20433;-64
2022/02/08 02:22:06;;;;;;;0.10;0.10;;;4.30;99.90;;;;;;5031716;28;20414;-64
2022/02/08 02:24:33;;;;;;;0.05;0.05;;;4.30;99.90;;;;;;5046487;28;20022;-64
2022/02/08 02:26:59;;;;;;;0.63;0.63;;;4.40;99.90;;;;;;5030400;28;20029;-64
2022/02/08 02:29:29;;;;;;;0.00;0.00;;;4.40;99.90;;;;;;5031442;28;20037;-64
2022/02/08 02:31:55;;;;;;;0.10;0.10;;;4.40;99.90;;;;;;5046548;28;20112;-64
2022/02/08 02:34:25;;;;;;;0.10;0.10;;;4.40;99.90;;;;;;5030992;28;20510;-65
2022/02/08 02:36:53;;;;;;;0.05;0.05;;;4.40;99.90;;;;;;5046258;28;20037;-65
2022/02/08 02:39:25;;;;;;;0.85;0.85;;;4.40;99.90;;;;;;5031179;28;20094;-65
2022/02/08 02:41:52;;;;;;;0.00;0.00;;;4.40;99.90;;;;;;5046237;28;20486;-64
2022/02/08 02:44:22;;;;;;;1.90;1.58;;;4.40;99.90;;;;;;5046180;28;20505;-65
2022/02/08 02:46:48;;;;;;;0.10;0.10;;;4.40;99.90;;;;;;5046084;28;20040;-65
2022/02/08 02:49:15;;;;;;;0.00;0.00;;;4.40;99.90;;;;;;5029524;28;20029;-65
2022/02/08 02:51:40;;;;;;;0.05;0.05;;;4.40;99.90;;;;;;5048104;28;20044;-65
2022/02/08 02:54:15;;;;;;;0.10;0.10;;;4.50;99.90;;;;;;5050488;28;20025;-64
2022/02/08 02:56:42;;;;;;;0.22;0.22;;;4.40;99.90;;;;;;5034858;28;20064;-65
2022/02/08 02:59:08;;;;;;;0.13;0.13;;;4.40;99.90;;;;;;5034755;28;20035;-64
2022/02/08 03:01:42;;;;;;;0.20;0.20;;;4.40;99.90;;;;;;5049951;28;20029;-64
2022/02/08 03:04:26;;;;;;;0.55;0.55;;;4.30;99.90;;;;;;5033257;28;20030;-63
2022/02/08 03:20:17;;;;;;;0.88;0.88;;;4.40;99.90;;;;;;5034242;28;20037;-64
2022/02/08 03:22:43;;;;;;;0.00;0.00;;;4.40;99.90;;;;;;5034608;28;20025;-64
2022/02/08 03:25:09;;;;;;;0.10;0.10;;;4.40;99.90;;;;;;5034564;28;20037;-64
2022/02/08 03:27:34;;;;;;;0.10;0.10;;;4.40;99.90;;;;;;5034365;28;20492;-64
2022/02/08 03:30:00;;;;;;;0.10;0.10;;;4.40;99.90;;;;;;5033878;28;20049;-64
2022/02/08 03:32:28;;;;;;;0.10;0.10;;;4.40;99.90;;;;;;5049406;28;20026;-64
2022/02/08 03:34:54;;;;;;;1.20;1.10;;;4.40;99.90;;;;;;5034329;28;20037;-64
2022/02/08 03:37:19;;;;;;;0.10;0.10;;;4.40;99.90;;;;;;5034196;28;20037;-64
2022/02/08 03:39:54;;;;;;;0.10;0.10;;;4.40;99.90;;;;;;5033939;28;20041;-64
2022/02/08 03:42:25;;;;;;;0.00;0.00;;;4.40;99.90;;;;;;5032769;28;20394;-64
2022/02/08 03:44:51;;;;;;;0.10;0.10;;;4.40;99.90;;;;;;5032734;28;20041;-63
2022/02/08 03:47:19;;;;;;;0.10;0.10;;;4.40;99.90;;;;;;5033986;28;20705;-63
2022/02/08 03:49:45;;;;;;;0.10;0.10;;;4.20;99.90;;;;;;5033906;28;20060;-63
2022/02/08 03:52:11;;;;;;;0.20;0.20;;;4.30;99.90;;;;;;5034069;28;20037;-64
2022/02/08 03:54:37;;;;;;;0.10;0.10;;;4.30;99.90;;;;;;5049309;28;20507;-64
2022/02/08 03:57:07;;;;;;;36.03;4.47;;;4.30;99.90;;;;;;5033706;28;20040;-64
2022/02/08 03:59:33;;;;;;;0.10;0.10;;;4.30;99.90;;;;;;5048322;28;20037;-63
2022/02/08 04:07:20;;;;;;;0.10;0.10;;;4.30;99.90;;;;;;5033845;28;20475;-63
2022/02/08 04:09:49;;;;;;;0.10;0.10;;;4.30;99.90;;;;;;5048856;28;20049;-64
2022/02/08 04:12:22;;;;;;;0.00;0.00;;;4.30;99.90;;;;;;5033371;28;20390;-64
2022/02/08 04:15:03;;;;;;;0.55;0.55;;;4.20;99.90;;;;;;5033446;28;20039;-64
2022/02/08 04:41:56;;;;;;;0.10;0.10;;;3.70;99.90;;;;;;5052911;28;20504;-63
2022/02/08 04:47:01;;;;;;;0.10;0.10;;;3.60;99.90;;;;;;5052514;28;20476;-64
2022/02/08 04:49:28;;;;;;;0.10;0.10;;;3.60;99.90;;;;;;5066492;28;20507;-64
2022/02/08 04:51:59;;;;;;;0.40;0.40;;;3.50;99.90;;;;;;5057595;28;20029;-65
2022/02/08 05:35:20;;;;;;;0.15;0.15;;;3.50;99.90;;;;;;5051710;28;20519;-61
2022/02/08 05:45:32;;;;;;;0.10;0.10;;;3.70;99.90;;;;;;5046952;28;20059;-62
2022/02/08 05:48:02;;;;;;;0.10;0.10;;;3.90;99.90;;;;;;5031908;28;20029;-63
2022/02/08 05:53:08;;;;;;;0.15;0.15;;;4.10;99.90;;;;;;5031635;28;20037;-63
2022/02/08 05:55:36;;;;;;;0.85;0.85;;;4.10;99.90;;;;;;5046664;28;20422;-63
2022/02/08 05:58:03;;;;;;;0.10;0.10;;;4.20;99.90;;;;;;5046516;28;20052;-63
2022/02/08 06:00:30;;;;;;;0.30;0.30;;;4.20;99.90;;;;;;5031273;28;20080;-63
2022/02/08 06:03:02;;;;;;;0.10;0.10;;;4.30;99.90;;;;;;5031607;28;20036;-63
2022/02/08 06:05:29;;;;;;;0.25;0.25;;;4.30;99.90;;;;;;5046605;28;20038;-63
2022/02/08 06:07:55;;;;;;;0.10;0.10;;;4.30;99.90;;;;;;5034478;28;20124;-63
2022/02/08 06:10:21;;;;;;;0.10;0.10;;;4.30;99.90;;;;;;5042117;28;20112;-63
2022/02/08 06:12:52;;;;;;;0.10;0.10;;;4.20;99.90;;;;;;5031379;28;20053;-63
2022/02/08 06:15:21;;;;;;;0.00;0.00;;;4.20;99.90;;;;;;5061696;28;20493;-63
2022/02/08 06:17:52;;;;;;;0.10;0.10;;;4.00;99.90;;;;;;5066214;28;20091;-63
2022/02/08 06:20:20;;;;;;;;;;;3.90;99.90;;;;;;5067006;28;20029;-63
2022/02/08 06:22:46;;;;;;;0.00;0.00;;;3.90;99.90;;;;;;5051192;28;19916;-63
2022/02/08 06:25:15;;;;;;;2.58;2.38;;;3.90;99.90;;;;;;5066546;28;20044;-63
2022/02/08 06:27:45;;;;;;;0.10;0.10;;;3.90;99.90;;;;;;5054214;28;20638;-63
2022/02/08 06:30:12;;;;;;;0.15;0.15;;;3.90;99.90;;;;;;5054969;28;20029;-63
2022/02/08 06:32:38;;;;;;;0.10;0.10;;;3.90;99.90;;;;;;5070261;28;20079;-63
2022/02/08 06:35:12;;;;;;;1.50;1.40;;;3.90;99.90;;;;;;5055061;28;20036;-63
2022/02/08 06:37:41;;;;;;;0.10;0.10;;;3.90;99.90;;;;;;5054842;28;20037;-63
2022/02/08 06:40:09;;;;;;;0.10;0.10;;;3.90;99.90;;;;;;5053734;28;20121;-63
2022/02/08 06:42:40;;;;;;;0.10;0.10;;;4.00;99.90;;;;;;5054503;28;20025;-64
2022/02/08 06:45:08;;;;;;;7.68;1.08;;;4.10;99.90;;;;;;5038120;28;20052;-63
2022/02/08 06:47:34;;;;;;;0.00;0.00;;;4.10;99.90;;;;;;5070258;28;20040;-63
2022/02/08 06:50:03;;;;;;;0.10;0.10;;;4.10;99.90;;;;;;5070199;28;20033;-63
2022/02/08 06:52:29;;;;;;;0.10;0.10;;;4.20;99.90;;;;;;5054961;28;20090;-63
2022/02/08 06:54:55;;;;;;;0.40;0.40;;;4.20;99.90;;;;;;5054184;28;20036;-63
2022/02/08 06:57:21;;;;;;;0.00;0.00;;;4.20;99.90;;;;;;5054949;28;20033;-63
2022/02/08 06:59:53;;;;;;;0.10;0.10;;;4.20;99.90;;;;;;5054711;28;20037;-63
2022/02/08 07:02:19;;;;;;;0.00;0.00;;;4.20;99.90;;;;;;5054706;28;20490;-64
2022/02/08 07:04:45;;;;;;;0.00;0.00;;;4.30;99.90;;;;;;5054344;28;20478;-63
2022/02/08 07:07:12;;;;;;;0.05;0.05;;;4.30;99.90;;;;;;5054792;28;20029;-63
2022/02/08 07:09:39;;;;;;;0.10;0.10;;;4.40;99.90;;;;;;5054379;28;20037;-62
2022/02/08 07:12:05;;;;;;;0.03;0.03;;;4.50;99.90;;;;;;5054669;28;20033;-63
2022/02/08 07:14:32;;;;;;;0.10;0.10;;;4.60;99.90;;;;;;5054496;28;20091;-63
2022/02/08 07:16:58;;;;;;;0.00;0.00;;;4.70;99.90;;;;;;5054413;28;20029;-63
2022/02/08 07:19:25;;;;;;;2.17;2.05;;;4.70;99.90;;;;;;5054387;28;20025;-63
2022/02/08 07:21:51;;;;;;;2.25;2.15;;;4.80;99.90;;;;;;5054108;28;20032;-63
2022/02/08 07:24:19;;;;;;;0.30;0.30;;;4.70;99.90;;;;;;5069637;28;20197;-63
2022/02/08 07:26:51;;;;;;;0.10;0.10;;;4.70;99.90;;;;;;5050887;28;20091;-63
2022/02/08 07:29:17;;;;;;;0.10;0.10;;;4.70;99.90;;;;;;5069562;28;20040;-62
2022/02/08 07:31:52;;;;;;;0.20;0.20;;;4.70;99.90;;;;;;5069596;28;20074;-62
2022/02/08 07:34:23;;;;;;;0.10;0.10;;;4.70;99.90;;;;;;5069319;28;20053;-62
2022/02/08 07:42:01;;;;;;;0.75;0.75;;;4.70;99.90;;;;;;5053472;28;20043;-64
2022/02/08 07:44:27;;;;;;;0.10;0.10;;;4.80;99.90;;;;;;5068899;28;20037;-63
2022/02/08 07:46:53;;;;;;;0.10;0.10;;;4.80;99.90;;;;;;5053826;28;20021;-66
2022/02/08 07:49:18;;;;;;;0.10;0.10;;;4.80;99.90;;;;;;5069281;28;20036;-64
2022/02/08 07:51:44;;;;;;;0.10;0.10;;;4.90;99.90;;;;;;5053601;28;20036;-64
2022/02/08 07:54:11;;;;;;;0.22;0.22;;;4.90;99.90;;;;;;5053556;28;20036;-64
2022/02/08 07:56:37;;;;;;;0.00;0.00;;;4.80;99.90;;;;;;5053394;28;20112;-64
2022/02/08 07:59:03;;;;;;;0.15;0.15;;;4.90;99.90;;;;;;5068903;28;20111;-64
2022/02/08 08:01:29;;;;;;;0.10;0.10;;;4.90;99.90;;;;;;5068846;28;20154;-64
2022/02/08 08:03:57;;;;;;;0.10;0.10;;;5.00;99.90;;;;;;5068896;28;20048;-64
2022/02/08 08:06:23;;;;;;;0.10;0.10;;;4.90;99.90;;;;;;5053722;28;20040;-64
2022/02/08 08:08:49;;;;;;;0.20;0.20;;;4.90;99.90;;;;;;5053371;28;20037;-65
2022/02/08 08:11:20;;;;;;;1.45;1.02;;;4.90;99.90;;;;;;5053259;28;20033;-65
2022/02/08 08:13:52;;;;;;;0.10;0.10;;;4.90;99.90;;;;;;5068661;28;20047;-65
2022/02/08 08:16:31;;;;;;;0.03;0.03;;;5.00;99.90;;;;;;5053579;28;20111;-65
2022/02/08 08:21:34;;;;;;;0.05;0.05;;;5.00;99.90;;;;;;5052784;28;20155;-63
2022/02/08 08:24:02;;;;;;;0.10;0.10;;;5.00;99.90;;;;;;5053051;28;20086;-64
2022/02/08 08:26:28;;;;;;;0.38;0.38;;;5.10;99.90;;;;;;5068518;28;20037;-63
2022/02/08 08:28:53;;;;;;;0.10;0.10;;;5.10;99.90;;;;;;5053051;28;20025;-63
2022/02/08 08:31:20;;;;;;;0.15;0.15;;;5.10;99.90;;;;;;5053188;28;20554;-63
2022/02/08 08:33:46;;;;;;;0.10;0.10;;;5.10;99.90;;;;;;5052634;28;20056;-64
2022/02/08 08:36:13;;;;;;;0.10;0.10;;;5.00;99.90;;;;;;5068055;28;20033;-64
2022/02/08 08:38:39;;;;;;;3.30;0.90;;;4.90;99.90;;;;;;5067721;28;20039;-63
2022/02/08 08:51:53;;;;;;;0.08;0.08;;;5.00;99.90;;;;;;5052710;28;20033;-64
2022/02/08 08:54:20;;;;;;;0.00;0.00;;;5.10;99.90;;;;;;5067170;28;20033;-64
2022/02/08 08:56:49;;;;;;;0.10;0.10;;;5.10;99.90;;;;;;5052523;28;20036;-64
2022/02/08 08:59:16;;;;;;;0.08;0.08;;;5.20;99.90;;;;;;5067734;28;20025;-64
2022/02/08 09:01:43;;;;;;;0.00;0.00;;;5.20;99.90;;;;;;5052522;28;20540;-66
2022/02/08 09:04:09;;;;;;;0.28;0.28;;;5.30;99.90;;;;;;5067406;28;20116;-64
2022/02/08 09:06:36;;;;;;;0.57;0.57;;;5.40;99.90;;;;;;5067552;28;20028;-64
2022/02/08 09:09:13;;;;;;;0.00;0.00;;;5.30;99.90;;;;;;5050710;28;20130;-63
2022/02/08 09:11:52;;;;;;;0.08;0.08;;;5.40;99.90;;;;;;5066586;28;20087;-63
2022/02/08 09:14:22;;;;;;;0.10;0.10;;;5.40;99.90;;;;;;5050987;28;20035;-64
2022/02/08 09:30:08;;;;;;;0.32;0.32;;;5.70;99.90;;;;;;5064680;28;20562;-64
2022/02/08 09:32:53;;;;;;;0.30;0.30;;;5.60;99.90;;;;;;5051353;28;20048;-65
2022/02/08 09:35:20;;;;;;;0.10;0.10;;;5.70;99.90;;;;;;5033858;28;20504;-64
2022/02/08 09:37:47;;;;;;;1.35;1.35;;;5.80;99.90;;;;;;5051780;28;20466;-64
2022/02/08 09:40:19;;;;;;;0.00;0.00;;;5.90;99.90;;;;;;5051695;28;20486;-64
2022/02/08 09:42:47;;;;;;;0.10;0.10;;;5.90;99.90;;;;;;5066964;28;20064;-63
2022/02/08 09:45:18;;;;;;;0.10;0.10;;;5.90;99.90;;;;;;5051744;28;20046;-63
2022/02/08 09:48:01;;;;;;;0.10;0.10;;;5.90;99.90;;;;;;5051697;28;20033;-63
2022/02/08 09:50:32;;;;;;;0.10;0.10;;;6.00;99.90;;;;;;5051713;28;20036;-64
2022/02/08 09:53:01;;;;;;;0.45;0.45;;;6.00;99.90;;;;;;5050290;28;20036;-63
2022/02/08 09:55:39;;;;;;;0.40;0.40;;;6.00;99.90;;;;;;5050149;28;20032;-64
2022/02/08 09:58:06;;;;;;;0.00;0.00;;;6.00;99.90;;;;;;5049972;28;20109;-64
2022/02/08 10:00:34;;;;;;;0.10;0.10;;;6.10;99.90;;;;;;5066645;28;20039;-64
2022/02/08 10:03:16;;;;;;;0.05;0.05;;;6.20;99.90;;;;;;5065914;28;20049;-64
2022/02/08 10:05:55;;;;;;;0.10;0.10;;;6.20;99.90;;;;;;5050938;28;20036;-64
2022/02/08 10:08:21;;;;;;;0.10;0.10;;;6.20;99.90;;;;;;5051560;28;20040;-64
2022/02/08 10:10:48;;;;;;;0.00;0.00;;;6.30;99.90;;;;;;5066726;28;20041;-64
2022/02/08 10:13:46;;;;;;;0.17;0.17;;;6.30;99.90;;;;;;5066549;28;20116;-64
2022/02/08 10:24:08;;;;;;;0.10;0.10;;;6.60;99.90;;;;;;5051458;28;20083;-64
2022/02/08 10:29:39;;;;;;;0.00;0.00;;;6.60;99.90;;;;;;5065732;28;20025;-64
2022/02/08 10:37:49;;;;;;;0.13;0.13;;;6.70;99.90;;;;;;5050844;28;20074;-64
2022/02/08 10:40:22;;;;;;;0.08;0.08;;;6.70;99.90;;;;;;5051144;28;20029;-63
2022/02/08 10:42:58;;;;;;;0.00;0.00;;;6.70;99.90;;;;;;5049505;28;20481;-63
2022/02/08 10:45:29;;;;;;;0.00;0.00;;;6.70;99.90;;;;;;5051088;28;20029;-63
2022/02/08 10:48:10;;;;;;;1.63;1.52;;;6.50;99.90;;;;;;5066050;28;20418;-64
2022/02/08 10:50:46;;;;;;;0.00;0.00;;;6.50;99.90;;;;;;5066352;28;20540;-64
2022/02/08 10:53:14;;;;;;;0.03;0.03;;;6.60;99.90;;;;;;5065789;28;20051;-64
2022/02/08 11:03:22;;;;;;;0.10;0.10;;;6.70;99.90;;;;;;5051102;28;20112;-64
2022/02/08 11:09:20;;;;;;;0.00;0.00;;;6.80;99.90;;;;;;5063162;28;20075;-65
2022/02/08 11:12:24;;;;;;;0.03;0.03;;;6.80;99.90;;;;;;5039032;28;20112;-64
2022/02/08 11:15:16;;;;;;;0.10;0.10;;;6.80;99.90;;;;;;5043755;28;20070;-65
2022/02/08 11:20:40;;;;;;;0.00;0.00;;;6.90;99.90;;;;;;5034379;28;20084;-65
2022/02/08 11:24:07;;;;;;;0.35;0.35;;;6.90;99.90;;;;;;5034298;28;20060;-64
2022/02/08 11:26:06;;;;;;;0.10;0.10;;;6.70;99.90;;;;;;5030260;28;20049;-64
2022/02/08 11:28:43;;;;;;;0.00;0.00;;;6.80;99.90;;;;;;5033010;28;20022;-64
2022/02/08 11:53:24;;;;;;;0.05;0.05;;;6.80;99.90;;;;;;5032344;28;20405;-65
2022/02/08 12:09:44;;;;;;;0.00;0.00;;;6.70;99.90;;;;;;5073426;28;20035;-64
2022/02/08 12:55:05;;;;;;;0.10;0.10;;;6.90;99.90;;;;;;5065294;28;20350;-65
2022/02/08 14:08:39;;;;;;;;;;;7.30;99.90;;;;;;5045084;28;20550;-64
2022/02/08 14:11:24;;;;;;;0.00;0.00;;;7.30;99.90;;;;;;5031357;28;19913;-64
2022/02/08 14:14:02;;;;;;;0.00;0.00;;;7.30;99.90;;;;;;5046723;28;20098;-65
2022/02/08 14:17:12;;;;;;;0.65;0.65;;;7.40;99.90;;;;;;5031255;28;20163;-64
2022/02/08 14:25:15;;;;;;;0.10;0.10;;;7.50;99.90;;;;;;4994573;28;20049;-64
2022/02/08 14:30:26;;;;;;;3.50;1.17;;;7.60;99.90;;;;;;5051256;28;20128;-64
2022/02/08 15:06:55;;;;;;;0.00;0.00;;;7.80;99.90;;;;;;5045422;28;20143;-65
2022/02/08 15:08:47;;;;;;;0.10;0.10;;;7.80;99.90;;;;;;5081677;28;20122;-64
2022/02/08 15:11:13;;;;;;;0.00;0.00;;;7.80;99.90;;;;;;5081554;28;20036;-64
2022/02/08 15:13:46;;;;;;;0.00;0.00;;;7.70;99.90;;;;;;5054304;28;20433;-63
2022/02/08 15:16:30;;;;;;;0.10;0.10;;;7.80;99.90;;;;;;5068853;28;20033;-63
2022/02/08 15:18:56;;;;;;;0.03;0.03;;;7.90;99.90;;;;;;5053988;28;20032;-63
2022/02/08 15:21:30;;;;;;;0.20;0.20;;;7.90;99.90;;;;;;5069509;28;20033;-64
2022/02/08 15:23:56;;;;;;;0.00;0.00;;;7.90;99.90;;;;;;5068450;28;20040;-64
2022/02/08 15:26:22;;;;;;;0.10;0.10;;;7.80;99.90;;;;;;5054411;28;20037;-63
2022/02/08 15:28:49;;;;;;;0.20;0.20;;;7.80;99.90;;;;;;5054046;28;20040;-63
2022/02/08 15:31:17;;;;;;;0.10;0.10;;;7.80;99.90;;;;;;5053859;28;20120;-64
2022/02/08 15:33:44;;;;;;;0.10;0.10;;;7.80;99.90;;;;;;5053836;28;20086;-64
2022/02/08 15:36:15;;;;;;;0.10;0.10;;;7.80;99.90;;;;;;5069258;28;20037;-64
2022/02/08 15:38:50;;;;;;;0.00;0.00;;;7.90;99.90;;;;;;5069029;28;20114;-64
2022/02/08 15:41:17;;;;;;;0.17;0.17;;;7.90;99.90;;;;;;5054140;28;20040;-64
2022/02/08 15:43:43;;;;;;;0.08;0.08;;;7.80;99.90;;;;;;5053929;28;20029;-64
2022/02/08 15:46:18;;;;;;;0.00;0.00;;;7.90;99.90;;;;;;5053691;28;20044;-64
2022/02/08 15:48:46;;;;;;;0.17;0.17;;;7.90;99.90;;;;;;5053804;28;20025;-64
2022/02/08 15:51:25;;;;;;;1.10;1.00;;;7.70;99.90;;;;;;5051983;28;20382;-64
2022/02/08 15:56:54;;;;;;;0.00;0.00;;;7.80;99.90;;;;;;5053577;28;20025;-63
2022/02/08 16:07:27;;;;;;;0.35;0.32;;;7.80;99.90;;;;;;5052807;28;20029;-64
2022/02/08 16:10:07;;;;;;;0.10;0.10;;;7.80;99.90;;;;;;5037109;28;20122;-64
2022/02/08 16:12:44;;;;;;;1.42;1.33;;;7.80;99.90;;;;;;5034367;28;20051;-69
2022/02/08 16:28:25;;;;;;;0.98;0.98;;;7.90;99.90;;;;;;5033211;28;20045;-72
2022/02/08 16:53:09;;;;;;;0.22;0.22;;;7.80;99.90;;;;;;5043047;28;20045;-64
2022/02/08 16:55:48;;;;;;;0.93;0.90;;;7.80;99.90;;;;;;5039970;28;20060;-65
2022/02/08 16:58:28;;;;;;;6.35;0.73;;;7.80;99.90;;;;;;5014955;28;20055;-65
2022/02/08 17:00:58;;;;;;;0.00;0.00;;;7.80;99.90;;;;;;5043496;28;20425;-64
2022/02/08 17:03:28;;;;;;;0.05;0.05;;;7.90;99.90;;;;;;5040851;28;20083;-69
2022/02/08 17:05:54;;;;;;;0.00;0.00;;;7.90;99.90;;;;;;5057808;28;20455;-62
2022/02/08 17:08:22;;;;;;;0.00;0.00;;;7.80;99.90;;;;;;5059086;28;20057;-63
2022/02/08 17:10:51;;;;;;;0.10;0.10;;;7.80;99.90;;;;;;5045339;28;20044;-64
2022/02/08 17:13:36;;;;;;;0.00;0.00;;;7.90;99.90;;;;;;5036410;28;20029;-64
2022/02/08 17:16:34;;;;;;;0.38;0.38;;;7.90;99.90;;;;;;5042607;28;20091;-63
2022/02/08 17:19:06;;;;;;;0.32;0.32;;;7.90;99.90;;;;;;5051661;28;20048;-64
2022/02/08 17:48:18;;;;;;;0.00;0.00;;;7.80;99.90;;;;;;5051410;28;20047;-66
2022/02/08 17:50:45;;;;;;;0.35;0.35;;;7.80;99.90;;;;;;5051506;28;20075;-67
2022/02/08 17:53:11;;;;;;;0.00;0.00;;;7.80;99.90;;;;;;5051860;28;20137;-67
2022/02/08 17:55:37;;;;;;;0.00;0.00;;;7.80;99.90;;;;;;5051529;28;20472;-65
2022/02/08 17:58:04;;;;;;;0.45;0.45;;;7.80;99.90;;;;;;5051702;28;20094;-65
2022/02/08 18:00:33;;;;;;;0.00;0.00;;;7.80;99.90;;;;;;5051762;28;20055;-66
2022/02/08 18:03:05;;;;;;;0.13;0.13;;;7.80;99.90;;;;;;5051572;28;20021;-66
2022/02/08 18:05:31;;;;;;;0.00;0.00;;;7.80;99.90;;;;;;5050524;28;20409;-64
2022/02/08 18:07:58;;;;;;;0.20;0.20;;;7.80;99.90;;;;;;5051693;28;20037;-64
2022/02/08 18:10:25;;;;;;;4.88;2.70;;;7.80;99.90;;;;;;5033477;28;20041;-65
2022/02/08 18:12:55;;;;;;;3.08;2.88;;;7.80;99.90;;;;;;5050516;28;20054;-64
2022/02/08 18:15:23;;;;;;;1.25;1.15;;;7.80;99.90;;;;;;5050135;28;20040;-65
2022/02/08 18:17:56;;;;;;;0.63;0.63;;;7.80;99.90;;;;;;5032649;28;20057;-65
2022/02/08 18:20:29;;;;;;;0.10;0.10;;;7.80;99.90;;;;;;5014218;28;20390;-64
2022/02/08 18:26:10;;;;;;;0.10;0.10;;;7.80;99.90;;;;;;5049376;28;20041;-65
2022/02/08 18:28:55;;;;;;;0.15;0.15;;;7.80;99.90;;;;;;5035282;28;20034;-66
2022/02/08 19:22:00;;;;;;;0.15;0.15;;;8.00;99.90;;;;;;5054437;28;20036;-64
2022/02/08 19:24:26;;;;;;;0.00;0.00;;;7.90;99.90;;;;;;5054809;28;20109;-63
2022/02/08 19:26:56;;;;;;;0.00;0.00;;;7.90;99.90;;;;;;5052509;28;20124;-64
2022/02/08 19:29:23;;;;;;;0.00;0.00;;;8.00;99.90;;;;;;5069556;28;20032;-64
2022/02/08 19:31:49;;;;;;;0.10;0.10;;;8.00;99.90;;;;;;5067697;28;20037;-64
2022/02/08 19:34:16;;;;;;;1.40;1.30;;;8.00;99.90;;;;;;5051678;28;20041;-64
2022/02/08 19:36:44;;;;;;;0.10;0.10;;;8.00;99.90;;;;;;5053769;28;20045;-64
2022/02/08 19:39:11;;;;;;;0.00;0.00;;;8.00;99.90;;;;;;5054003;28;20060;-64
2022/02/08 19:41:37;;;;;;;0.10;0.10;;;8.10;99.90;;;;;;5053917;28;20044;-64
2022/02/08 19:44:09;;;;;;;0.10;0.10;;;8.10;99.90;;;;;;5069019;28;20037;-64
2022/02/08 19:46:37;;;;;;;0.38;0.38;;;8.10;99.90;;;;;;5053962;28;20032;-64
2022/02/08 19:49:04;;;;;;;0.10;0.10;;;8.10;99.90;;;;;;5068969;28;20120;-64
2022/02/08 19:51:30;;;;;;;0.05;0.05;;;8.10;99.90;;;;;;5053759;28;20048;-64
2022/02/08 19:53:58;;;;;;;0.00;0.00;;;8.00;99.90;;;;;;5053854;28;20111;-64
2022/02/08 19:56:51;;;;;;;1.95;0.55;;;8.10;99.90;;;;;;5050366;28;20143;-64
2022/02/08 19:59:14;;;;;;;0.00;0.00;;;8.00;99.90;;;;;;5032392;28;20049;-64
2022/02/08 20:01:46;;;;;;;0.98;0.98;;;8.00;99.90;;;;;;5033681;28;20037;-64
2022/02/08 20:04:19;;;;;;;0.05;0.05;;;8.00;99.90;;;;;;5033745;28;20029;-63
2022/02/08 20:06:46;;;;;;;0.00;0.00;;;8.00;99.90;;;;;;5040317;28;20398;-63
2022/02/08 20:09:14;;;;;;;0.00;0.00;;;8.00;99.90;;;;;;5043568;28;20037;-63
2022/02/08 20:11:41;;;;;;;0.00;0.00;;;8.10;99.90;;;;;;5068614;28;20106;-63
2022/02/08 20:14:08;;;;;;;3.65;0.75;;;8.00;99.90;;;;;;5053174;28;20060;-63
2022/02/08 20:16:35;;;;;;;0.00;0.00;;;8.00;99.90;;;;;;5053569;28;20044;-63
2022/02/08 20:19:03;;;;;;;0.00;0.00;;;8.00;99.90;;;;;;5069075;28;20100;-63
2022/02/08 20:21:32;;;;;;;0.00;0.00;;;8.00;99.90;;;;;;5053473;28;20033;-63
2022/02/08 20:24:01;;;;;;;0.00;0.00;;;8.00;99.90;;;;;;5039237;28;20040;-63
2022/02/08 20:29:12;;;;;;;0.00;0.00;;;7.90;99.90;;;;;;5043841;28;20033;-64
2022/02/08 20:31:38;;;;;;;0.00;0.00;;;7.90;99.90;;;;;;5043124;28;20029;-64
2022/02/08 20:34:03;;;;;;;0.30;0.30;;;7.90;99.90;;;;;;5038323;28;20504;-64
2022/02/08 20:36:29;;;;;;;0.00;0.00;;;7.90;99.90;;;;;;5053240;28;20037;-64
2022/02/08 20:38:55;;;;;;;0.10;0.10;;;7.90;99.90;;;;;;5065499;28;20021;-64
2022/02/08 20:41:21;;;;;;;0.00;0.00;;;7.90;99.90;;;;;;5065576;28;20100;-64
2022/02/08 20:43:49;;;;;;;0.10;0.10;;;7.90;99.90;;;;;;5059676;28;20047;-64
2022/02/08 20:46:16;;;;;;;0.03;0.03;;;7.90;99.90;;;;;;5041798;28;20025;-64
2022/02/08 20:48:46;;;;;;;0.22;0.22;;;7.90;99.90;;;;;;5066676;28;20028;-64
2022/02/08 20:51:12;;;;;;;0.03;0.03;;;8.00;99.90;;;;;;5051107;28;20036;-64
2022/02/08 20:53:40;;;;;;;0.00;0.00;;;8.00;99.90;;;;;;5051317;28;20477;-64
2022/02/08 20:56:27;;;;;;;0.08;0.08;;;8.00;99.90;;;;;;5051274;28;20574;-64
2022/02/08 21:01:27;;;;;;;0.20;0.20;;;8.00;99.90;;;;;;5067100;28;20025;-64
2022/02/08 21:04:05;;;;;;;0.00;0.00;;;8.00;99.90;;;;;;5052294;28;20079;-64
2022/02/08 21:06:34;;;;;;;0.52;0.52;;;8.10;99.90;;;;;;5067836;28;20025;-63
2022/02/08 21:09:01;;;;;;;0.25;0.25;;;8.10;99.90;;;;;;5052482;28;20033;-64
2022/02/08 21:11:39;;;;;;;0.10;0.10;;;8.00;99.90;;;;;;5052123;28;20033;-64
2022/02/08 21:14:12;;;;;;;0.28;0.28;;;8.10;99.90;;;;;;5066403;28;20065;-63
2022/02/08 21:16:44;;;;;;;0.00;0.00;;;8.10;99.90;;;;;;5067243;28;20110;-64
2022/02/08 21:19:13;;;;;;;0.00;0.00;;;8.10;99.90;;;;;;5067218;28;20033;-64